createdAt,value
2022-08-09T00:00:04.169Z,18.90
2022-08-09T00:02:33.953Z,18.80
2022-08-09T00:06:17.501Z,18.80
2022-08-09T00:07:52.321Z,18.80
2022-08-09T00:10:24.564Z,18.70
2022-08-09T00:12:53.475Z,18.60
2022-08-09T00:15:26.416Z,18.50
2022-08-09T00:18:12.487Z,18.50
2022-08-09T00:20:50.256Z,18.50
2022-08-09T00:23:57.465Z,18.40
2022-08-09T00:26:11.133Z,18.40
2022-08-09T00:28:40.579Z,18.40
2022-08-09T00:31:57.118Z,18.40
2022-08-09T00:33:57.838Z,18.40
2022-08-09T00:36:30.850Z,18.60
2022-08-09T00:38:59.369Z,18.30
2022-08-09T00:44:14.162Z,18.30
2022-08-09T00:44:27.308Z,18.30
2022-08-09T00:47:05.256Z,18.30
2022-08-09T00:49:34.631Z,18.20
2022-08-09T00:52:15.895Z,18.20
2022-08-09T00:54:46.106Z,18.30
2022-08-09T00:57:24.811Z,18.30
2022-08-09T01:00:22.011Z,18.30
2022-08-09T01:02:52.906Z,18.10
2022-08-09T01:05:51.018Z,18.00
2022-08-09T01:08:29.901Z,18.10
2022-08-09T01:11:09.906Z,18.00
2022-08-09T01:13:59.122Z,18.00
2022-08-09T01:16:35.127Z,18.00
2022-08-09T01:19:17.252Z,18.00
2022-08-09T01:22:16.293Z,18.00
2022-08-09T01:24:54.942Z,18.00
2022-08-09T01:27:27.536Z,17.90
2022-08-09T01:30:00.950Z,18.10
2022-08-09T01:32:33.711Z,17.90
2022-08-09T01:35:17.935Z,17.80
2022-08-09T01:38:07.804Z,17.70
2022-08-09T01:40:43.206Z,17.50
2022-08-09T01:43:13.398Z,17.50
2022-08-09T01:45:46.090Z,17.40
2022-08-09T01:48:17.305Z,17.50
2022-08-09T01:50:48.589Z,17.60
2022-08-09T01:53:23.840Z,17.50
2022-08-09T01:55:58.140Z,17.40
2022-08-09T01:58:29.762Z,17.30
2022-08-09T02:01:00.740Z,17.50
2022-08-09T02:03:32.286Z,17.40
2022-08-09T02:06:06.629Z,17.30
2022-08-09T02:08:58.833Z,17.60
2022-08-09T02:11:40.228Z,17.50
2022-08-09T02:14:25.665Z,17.40
2022-08-09T02:17:14.640Z,17.30
2022-08-09T02:19:45.361Z,17.20
2022-08-09T02:22:31.540Z,17.20
2022-08-09T02:25:06.628Z,17.20
2022-08-09T02:27:57.280Z,17.30
2022-08-09T02:30:30.459Z,17.20
2022-08-09T02:33:01.611Z,17.30
2022-08-09T02:36:03.784Z,17.20
2022-08-09T02:38:28.730Z,17.30
2022-08-09T02:41:01.978Z,17.30
2022-08-09T02:43:47.778Z,17.10
2022-08-09T02:46:25.704Z,17.00
2022-08-09T02:48:59.453Z,16.90
2022-08-09T02:51:37.022Z,17.00
2022-08-09T02:54:13.711Z,17.00
2022-08-09T02:56:51.104Z,17.10
2022-08-09T02:59:26.296Z,17.10
2022-08-09T03:02:09.736Z,17.10
2022-08-09T03:04:41.748Z,17.10
2022-08-09T03:07:14.032Z,17.00
2022-08-09T03:09:56.217Z,17.00
2022-08-09T03:12:25.661Z,16.80
2022-08-09T03:14:54.906Z,16.80
2022-08-09T03:17:27.089Z,16.70
2022-08-09T03:20:05.006Z,16.60
2022-08-09T03:22:41.329Z,16.50
2022-08-09T03:25:26.380Z,16.40
2022-08-09T03:28:02.627Z,16.40
2022-08-09T03:30:33.975Z,16.50
2022-08-09T03:33:12.808Z,16.60
2022-08-09T03:36:12.737Z,16.60
2022-08-09T03:38:37.338Z,16.50
2022-08-09T03:41:15.321Z,16.50
2022-08-09T03:43:51.859Z,16.40
2022-08-09T03:46:33.936Z,16.40
2022-08-09T03:49:08.312Z,16.40
2022-08-09T03:51:57.382Z,16.40
2022-08-09T03:54:32.384Z,16.30
2022-08-09T03:57:04.205Z,16.30
2022-08-09T03:59:53.165Z,16.10
2022-08-09T04:02:26.812Z,16.00
2022-08-09T04:04:58.725Z,16.00
2022-08-09T04:07:33.650Z,16.00
2022-08-09T04:10:18.347Z,15.90
2022-08-09T04:12:51.032Z,16.00
2022-08-09T04:15:51.886Z,16.10
2022-08-09T04:18:09.360Z,16.00
2022-08-09T04:20:46.753Z,16.00
2022-08-09T04:23:17.071Z,16.10
2022-08-09T04:25:51.610Z,16.10
2022-08-09T04:28:33.547Z,16.20
2022-08-09T04:31:09.140Z,16.70
2022-08-09T04:33:47.239Z,17.40
2022-08-09T04:36:25.011Z,17.90
2022-08-09T04:38:53.391Z,18.40
2022-08-09T04:41:23.701Z,18.60
2022-08-09T04:44:05.031Z,18.60
2022-08-09T04:46:37.580Z,18.30
2022-08-09T04:49:40.419Z,17.90
2022-08-09T04:52:18.717Z,17.60
2022-08-09T04:54:51.611Z,17.40
2022-08-09T04:57:21.523Z,17.40
2022-08-09T04:59:52.892Z,17.40
2022-08-09T05:02:20.957Z,17.30
2022-08-09T05:04:49.001Z,17.30
2022-08-09T05:07:29.247Z,17.30
2022-08-09T05:10:01.810Z,17.40
2022-08-09T05:12:33.149Z,17.50
2022-08-09T05:15:03.606Z,17.50
2022-08-09T05:18:42.044Z,17.60
2022-08-09T05:20:29.897Z,17.80
2022-08-09T05:23:54.081Z,17.80
2022-08-09T05:25:51.103Z,17.80
2022-08-09T05:28:20.261Z,17.90
2022-08-09T05:30:48.967Z,17.90
2022-08-09T05:33:26.370Z,18.00
2022-08-09T05:36:01.794Z,18.10
2022-08-09T05:38:31.710Z,18.20
2022-08-09T05:41:00.437Z,18.30
2022-08-09T05:43:32.018Z,18.40
2022-08-09T05:46:00.577Z,18.50
2022-08-09T05:48:32.916Z,18.60
2022-08-09T05:51:43.124Z,18.70
2022-08-09T05:53:57.353Z,18.80
2022-08-09T05:56:33.584Z,18.80
2022-08-09T05:59:01.754Z,18.80
2022-08-09T06:01:34.259Z,18.90
2022-08-09T06:04:11.359Z,18.90
2022-08-09T06:06:46.765Z,19.10
2022-08-09T06:09:23.214Z,19.20
2022-08-09T06:12:08.421Z,19.30
2022-08-09T06:14:37.245Z,19.40
2022-08-09T06:17:09.254Z,19.50
2022-08-09T06:19:37.901Z,19.60
2022-08-09T06:22:06.237Z,19.70
2022-08-09T06:24:44.557Z,19.80
2022-08-09T06:27:15.471Z,19.80
2022-08-09T06:29:48.137Z,19.90
2022-08-09T06:33:13.247Z,20.10
2022-08-09T06:35:15.223Z,20.10
2022-08-09T06:37:52.924Z,20.30
2022-08-09T06:40:33.406Z,20.40
2022-08-09T06:43:02.206Z,20.60
2022-08-09T06:46:06.311Z,20.70
2022-08-09T06:48:30.749Z,20.80
2022-08-09T06:51:00.272Z,21.10
2022-08-09T06:53:33.285Z,22.00
2022-08-09T06:56:09.526Z,24.20
2022-08-09T07:00:47.495Z,25.90
2022-08-09T07:01:27.585Z,27.10
2022-08-09T07:04:19.791Z,28.80
2022-08-09T07:07:00.412Z,29.90
2022-08-09T07:09:55.069Z,30.30
2022-08-09T07:12:38.103Z,30.70
2022-08-09T07:16:34.990Z,31.60
2022-08-09T07:18:02.339Z,30.90
2022-08-09T07:20:31.320Z,31.10
2022-08-09T07:22:59.673Z,31.70
2022-08-09T07:25:28.039Z,31.90
2022-08-09T07:27:58.511Z,30.20
2022-08-09T07:30:33.055Z,31.30
2022-08-09T07:33:01.192Z,32.30
2022-08-09T07:35:29.250Z,33.00
2022-08-09T07:38:07.892Z,32.50
2022-08-09T07:40:54.081Z,31.90
2022-08-09T07:43:29.118Z,31.20
2022-08-09T07:46:01.847Z,32.00
2022-08-09T07:48:31.785Z,32.30
2022-08-09T07:51:09.289Z,32.80
2022-08-09T07:54:04.916Z,32.50
2022-08-09T07:56:39.031Z,33.00
2022-08-09T07:59:25.091Z,33.20
2022-08-09T08:02:03.442Z,32.60
2022-08-09T08:04:33.389Z,32.90
2022-08-09T08:07:15.551Z,32.60
2022-08-09T08:09:54.968Z,33.40
2022-08-09T08:12:42.589Z,33.60
2022-08-09T08:15:17.195Z,32.70
2022-08-09T08:17:53.461Z,32.80
2022-08-09T08:20:30.104Z,33.10
2022-08-09T08:23:03.763Z,32.60
2022-08-09T08:25:46.679Z,32.70
2022-08-09T08:28:18.131Z,31.60
2022-08-09T08:30:55.336Z,32.10
2022-08-09T08:33:24.743Z,33.60
2022-08-09T08:36:00.240Z,33.30
2022-08-09T08:38:31.521Z,34.00
2022-08-09T08:41:01.761Z,33.40
2022-08-09T08:43:34.711Z,33.00
2022-08-09T08:46:31.769Z,33.60
2022-08-09T08:48:56.235Z,33.50
2022-08-09T08:51:27.108Z,32.90
2022-08-09T08:54:20.450Z,33.60
2022-08-09T08:56:53.305Z,34.30
2022-08-09T08:59:21.892Z,34.70
2022-08-09T09:01:59.696Z,33.80
2022-08-09T09:04:33.183Z,34.00
2022-08-09T09:07:10.975Z,34.40
2022-08-09T09:09:59.683Z,34.60
2022-08-09T09:12:34.127Z,34.20
2022-08-09T09:15:06.252Z,34.40
2022-08-09T09:17:49.169Z,34.30
2022-08-09T09:20:21.671Z,34.40
2022-08-09T09:23:01.593Z,34.10
2022-08-09T09:26:03.245Z,32.40
2022-08-09T09:29:02.470Z,32.20
2022-08-09T09:31:17.527Z,33.70
2022-08-09T09:34:15.341Z,34.20
2022-08-09T09:36:53.824Z,34.20
2022-08-09T09:39:42.600Z,34.70
2022-08-09T09:42:25.273Z,33.90
2022-08-09T09:44:58.670Z,34.50
2022-08-09T09:47:28.738Z,35.10
2022-08-09T09:50:14.675Z,35.20
2022-08-09T09:52:53.640Z,35.10
2022-08-09T09:55:28.442Z,34.20
2022-08-09T09:58:18.571Z,33.50
2022-08-09T10:00:54.823Z,34.00
2022-08-09T10:03:56.130Z,34.80
2022-08-09T10:06:27.709Z,34.60
2022-08-09T10:09:02.857Z,35.20
2022-08-09T10:12:00.841Z,35.00
2022-08-09T10:14:30.327Z,34.30
2022-08-09T10:17:40.588Z,34.00
2022-08-09T10:19:53.039Z,34.20
2022-08-09T10:22:33.386Z,35.10
2022-08-09T10:25:10.985Z,34.50
2022-08-09T10:27:45.069Z,34.40
2022-08-09T10:34:05.282Z,35.40
2022-08-09T10:36:02.410Z,36.20
2022-08-09T10:38:55.326Z,36.10
2022-08-09T10:41:21.068Z,35.70
2022-08-09T10:44:01.375Z,34.90
2022-08-09T10:46:57.187Z,35.00
2022-08-09T10:49:50.094Z,35.10
2022-08-09T10:52:30.716Z,33.90
2022-08-09T10:55:20.854Z,34.10
2022-08-09T10:57:52.430Z,33.90
2022-08-09T11:00:41.897Z,34.40
2022-08-09T11:03:49.946Z,34.30
2022-08-09T11:06:25.382Z,33.70
2022-08-09T11:08:54.957Z,34.20
2022-08-09T11:12:11.992Z,34.90
2022-08-09T11:14:44.086Z,34.90
2022-08-09T11:17:53.760Z,35.50
2022-08-09T11:20:47.581Z,35.10
2022-08-09T11:23:23.970Z,34.50
2022-08-09T11:25:58.103Z,34.00
2022-08-09T11:28:38.657Z,33.80
2022-08-09T11:31:49.392Z,33.90
2022-08-09T11:34:25.862Z,33.60
2022-08-09T11:36:55.540Z,33.50
2022-08-09T11:39:25.129Z,33.90
2022-08-09T11:42:09.303Z,33.20
2022-08-09T11:44:49.362Z,32.60
2022-08-09T11:47:20.469Z,32.50
2022-08-09T11:50:53.578Z,32.60
2022-08-09T11:54:01.597Z,32.40
2022-08-09T11:56:42.785Z,32.40
2022-08-09T11:59:30.605Z,32.80
2022-08-09T12:02:18.009Z,33.70
2022-08-09T12:04:58.709Z,33.90
2022-08-09T12:07:41.413Z,33.90
2022-08-09T12:10:14.051Z,33.80
2022-08-09T12:12:47.235Z,33.60
2022-08-09T12:15:50.232Z,33.70
2022-08-09T12:18:29.625Z,33.80
2022-08-09T12:20:59.305Z,34.00
2022-08-09T12:23:56.325Z,33.90
2022-08-09T12:26:19.610Z,33.40
2022-08-09T12:33:58.629Z,34.40
2022-08-09T12:36:32.048Z,34.70
2022-08-09T12:39:02.337Z,33.90
2022-08-09T12:41:39.540Z,33.80
2022-08-09T12:44:10.146Z,34.40
2022-08-09T12:46:43.329Z,34.70
2022-08-09T12:49:18.553Z,34.90
2022-08-09T12:52:02.683Z,34.40
2022-08-09T12:56:14.816Z,33.90
2022-08-09T12:57:39.814Z,34.90
2022-08-09T13:00:17.723Z,35.20
2022-08-09T13:02:53.318Z,35.40
2022-08-09T13:05:26.104Z,36.00
2022-08-09T13:08:15.252Z,36.00
2022-08-09T13:10:52.146Z,34.80
2022-08-09T13:13:38.010Z,35.00
2022-08-09T13:16:20.265Z,35.10
2022-08-09T13:18:53.449Z,34.70
2022-08-09T13:22:38.317Z,34.50
2022-08-09T13:24:42.405Z,34.30
2022-08-09T13:27:05.948Z,34.10
2022-08-09T13:30:03.230Z,34.30
2022-08-09T13:32:28.730Z,34.70
2022-08-09T13:34:57.171Z,35.20
2022-08-09T13:37:51.211Z,35.60
2022-08-09T13:41:46.062Z,35.10
2022-08-09T13:43:05.004Z,35.00
2022-08-09T13:46:43.717Z,35.40
2022-08-09T13:48:29.935Z,35.60
2022-08-09T13:50:58.240Z,35.70
2022-08-09T13:53:43.181Z,34.70
2022-08-09T13:56:15.695Z,35.30
2022-08-09T13:58:46.386Z,35.60
2022-08-09T14:01:56.564Z,35.20
2022-08-09T14:04:11.236Z,35.70
2022-08-09T14:06:41.413Z,35.90
2022-08-09T14:09:15.928Z,35.70
2022-08-09T14:11:47.858Z,35.90
2022-08-09T14:14:25.587Z,35.80
2022-08-09T14:16:54.821Z,35.50
2022-08-09T14:19:22.909Z,35.10
2022-08-09T14:21:51.170Z,35.30
2022-08-09T14:24:22.394Z,35.50
2022-08-09T14:27:01.257Z,35.40
2022-08-09T14:30:34.774Z,35.60
2022-08-09T14:32:30.706Z,35.30
2022-08-09T14:34:59.691Z,35.30
2022-08-09T14:37:40.905Z,34.90
2022-08-09T14:40:19.716Z,35.20
2022-08-09T14:43:07.682Z,35.30
2022-08-09T14:46:58.753Z,35.50
2022-08-09T14:48:26.704Z,35.40
2022-08-09T14:50:55.078Z,35.20
2022-08-09T14:53:23.420Z,35.10
2022-08-09T14:55:53.052Z,34.70
2022-08-09T14:58:23.001Z,34.20
2022-08-09T15:00:52.405Z,34.20
2022-08-09T15:03:21.339Z,34.30
2022-08-09T15:05:53.728Z,34.20
2022-08-09T15:08:30.428Z,34.30
2022-08-09T15:11:07.105Z,34.60
2022-08-09T15:13:56.238Z,34.20
2022-08-09T15:16:23.950Z,34.80
2022-08-09T15:18:59.686Z,35.00
2022-08-09T15:21:56.063Z,34.90
2022-08-09T15:24:26.467Z,35.10
2022-08-09T15:26:57.750Z,34.80
2022-08-09T15:30:55.571Z,35.10
2022-08-09T15:32:29.874Z,35.30
2022-08-09T15:35:00.532Z,34.60
2022-08-09T15:37:56.321Z,33.60
2022-08-09T15:40:32.116Z,33.80
2022-08-09T15:43:03.066Z,33.90
2022-08-09T15:46:07.703Z,34.20
2022-08-09T15:48:29.456Z,33.60
2022-08-09T15:50:59.363Z,32.50
2022-08-09T15:54:05.069Z,32.50
2022-08-09T15:56:21.649Z,32.90
2022-08-09T15:58:59.347Z,33.50
2022-08-09T16:01:27.655Z,33.90
2022-08-09T16:03:59.767Z,34.40
2022-08-09T16:06:37.306Z,34.30
2022-08-09T16:09:06.952Z,34.30
2022-08-09T16:11:35.070Z,34.40
2022-08-09T16:14:07.995Z,34.30
2022-08-09T16:16:38.093Z,33.70
2022-08-09T16:19:07.761Z,33.20
2022-08-09T16:21:36.376Z,33.10
2022-08-09T16:24:05.080Z,32.70
2022-08-09T16:26:38.112Z,32.20
2022-08-09T16:29:12.417Z,32.10
2022-08-09T16:32:12.575Z,32.40
2022-08-09T16:34:56.013Z,32.90
2022-08-09T16:37:18.718Z,33.10
2022-08-09T16:40:02.635Z,33.00
2022-08-09T16:42:33.433Z,32.80
2022-08-09T16:45:02.894Z,32.70
2022-08-09T16:48:39.893Z,33.20
2022-08-09T16:50:30.529Z,33.20
2022-08-09T16:53:01.857Z,33.10
2022-08-09T16:55:44.174Z,32.70
2022-08-09T16:58:20.954Z,32.90
2022-08-09T17:00:51.356Z,32.90
2022-08-09T17:03:21.922Z,32.60
2022-08-09T17:06:07.817Z,32.40
2022-08-09T17:09:03.055Z,32.40
2022-08-09T17:11:40.907Z,32.50
2022-08-09T17:14:26.017Z,32.50
2022-08-09T17:17:01.029Z,32.20
2022-08-09T17:20:06.004Z,31.70
2022-08-09T17:22:24.738Z,31.20
2022-08-09T17:25:02.823Z,30.60
2022-08-09T17:27:32.232Z,30.10
2022-08-09T17:30:06.894Z,29.90
2022-08-09T17:32:44.416Z,29.40
2022-08-09T17:35:15.509Z,29.40
2022-08-09T17:38:02.116Z,29.30
2022-08-09T17:40:34.876Z,29.20
2022-08-09T17:43:32.503Z,29.10
2022-08-09T17:46:04.390Z,29.00
2022-08-09T17:48:39.146Z,28.80
2022-08-09T17:51:17.421Z,28.60
2022-08-09T17:53:52.662Z,28.50
2022-08-09T17:56:27.285Z,28.40
2022-08-09T17:58:58.741Z,28.20
2022-08-09T18:01:57.987Z,28.10
2022-08-09T18:04:18.051Z,28.10
2022-08-09T18:06:54.169Z,28.10
2022-08-09T18:09:25.248Z,28.00
2022-08-09T18:12:15.066Z,27.90
2022-08-09T18:14:49.726Z,27.80
2022-08-09T18:17:26.805Z,27.70
2022-08-09T18:20:55.246Z,27.60
2022-08-09T18:22:51.266Z,27.50
2022-08-09T18:25:52.682Z,27.40
2022-08-09T18:30:35.465Z,27.30
2022-08-09T18:31:04.862Z,27.20
2022-08-09T18:33:34.297Z,27.10
2022-08-09T18:36:02.650Z,27.10
2022-08-09T18:38:31.354Z,27.00
2022-08-09T18:41:00.969Z,26.90
2022-08-09T18:43:29.009Z,26.90
2022-08-09T18:46:47.571Z,26.80
2022-08-09T18:48:53.307Z,26.60
2022-08-09T18:51:38.581Z,26.50
2022-08-09T18:54:15.017Z,26.30
2022-08-09T18:56:53.867Z,26.10
2022-08-09T18:59:23.357Z,26.00
2022-08-09T19:01:55.012Z,26.00
2022-08-09T19:04:34.639Z,26.00
2022-08-09T19:07:05.363Z,25.90
2022-08-09T19:10:13.365Z,25.80
2022-08-09T19:12:23.352Z,25.70
2022-08-09T19:14:52.124Z,25.70
2022-08-09T19:17:22.212Z,25.60
2022-08-09T19:19:50.267Z,25.50
2022-08-09T19:22:29.139Z,25.40
2022-08-09T19:25:10.024Z,25.20
2022-08-09T19:27:46.512Z,25.10
2022-08-09T19:30:25.060Z,25.00
2022-08-09T19:32:56.991Z,24.90
2022-08-09T19:35:27.341Z,24.80
2022-08-09T19:37:57.731Z,24.70
2022-08-09T19:40:33.425Z,24.60
2022-08-09T19:43:05.328Z,24.50
2022-08-09T19:45:40.214Z,24.50
2022-08-09T19:48:11.013Z,24.40
2022-08-09T19:50:49.194Z,24.40
2022-08-09T19:53:26.499Z,24.40
2022-08-09T19:56:03.137Z,24.20
2022-08-09T19:58:36.402Z,24.00
2022-08-09T20:01:04.884Z,24.00
2022-08-09T20:04:16.821Z,24.00
2022-08-09T20:06:29.865Z,23.80
2022-08-09T20:09:00.084Z,23.80
2022-08-09T20:11:33.863Z,23.80
2022-08-09T20:14:15.183Z,23.60
2022-08-09T20:16:54.493Z,23.60
2022-08-09T20:19:47.669Z,23.40
2022-08-09T20:22:14.422Z,23.40
2022-08-09T20:24:53.907Z,23.40
2022-08-09T20:27:23.027Z,23.30
2022-08-09T20:29:52.453Z,23.20
2022-08-09T20:32:33.002Z,23.40
2022-08-09T20:35:02.395Z,23.20
2022-08-09T20:37:37.834Z,23.00
2022-08-09T20:40:27.594Z,23.10
2022-08-09T20:43:12.332Z,22.90
2022-08-09T20:45:59.669Z,22.80
2022-08-09T20:48:31.792Z,22.80
2022-08-09T20:51:00.831Z,22.70
2022-08-09T20:53:37.408Z,22.50
2022-08-09T20:56:09.405Z,22.50
2022-08-09T20:58:49.032Z,22.30
2022-08-09T21:01:35.287Z,22.20
2022-08-09T21:05:49.336Z,22.20
2022-08-09T21:06:55.206Z,22.30
2022-08-09T21:09:32.618Z,22.30
2022-08-09T21:14:42.258Z,22.70
2022-08-09T21:18:11.074Z,22.50
2022-08-09T21:20:22.757Z,22.60
2022-08-09T21:22:54.165Z,22.70
2022-08-09T21:25:44.411Z,22.30
2022-08-09T21:28:33.658Z,22.10
2022-08-09T21:31:17.109Z,21.90
2022-08-09T21:33:51.257Z,21.70
2022-08-09T21:36:23.204Z,21.60
2022-08-09T21:38:57.912Z,21.50
2022-08-09T21:42:04.555Z,21.40
2022-08-09T21:44:34.272Z,21.40
2022-08-09T21:47:07.775Z,21.40
2022-08-09T21:49:42.702Z,21.40
2022-08-09T21:52:16.620Z,21.30
2022-08-09T21:54:51.110Z,21.20
2022-08-09T21:57:38.495Z,21.10
2022-08-09T22:00:17.969Z,20.90
2022-08-09T22:02:59.266Z,20.90
2022-08-09T22:05:35.843Z,21.20
2022-08-09T22:08:13.674Z,21.10
2022-08-09T22:11:00.956Z,21.00
2022-08-09T22:13:34.564Z,21.00
2022-08-09T22:16:03.939Z,21.10
2022-08-09T22:18:33.062Z,20.90
2022-08-09T22:21:02.651Z,20.90
2022-08-09T22:23:59.161Z,21.00
2022-08-09T22:26:35.464Z,21.00
2022-08-09T22:29:09.159Z,21.30
2022-08-09T22:31:50.493Z,21.00
2022-08-09T22:34:26.237Z,21.10
2022-08-09T22:36:56.743Z,20.90
2022-08-09T22:39:55.757Z,20.70
2022-08-09T22:42:20.869Z,21.00
2022-08-09T22:45:11.520Z,20.80
2022-08-09T22:48:14.950Z,20.80
2022-08-09T22:50:27.968Z,20.60
2022-08-09T22:52:58.344Z,20.50
2022-08-09T22:55:39.767Z,20.30
2022-08-09T22:58:20.417Z,20.70
2022-08-09T23:01:00.787Z,20.60
2022-08-09T23:04:02.714Z,20.60
2022-08-09T23:06:32.541Z,20.50
2022-08-09T23:09:06.095Z,20.50
2022-08-09T23:11:34.343Z,20.60
2022-08-09T23:14:03.328Z,20.50
2022-08-09T23:16:32.379Z,20.50
2022-08-09T23:19:00.492Z,20.50
2022-08-09T23:21:33.619Z,20.50
2022-08-09T23:24:06.197Z,20.60
2022-08-09T23:26:37.336Z,20.80
2022-08-09T23:29:06.117Z,20.70
2022-08-09T23:31:34.632Z,21.00
2022-08-09T23:34:03.794Z,21.10
2022-08-09T23:36:32.460Z,21.10
2022-08-09T23:39:00.810Z,20.90
2022-08-09T23:41:29.849Z,20.80
2022-08-09T23:44:01.040Z,20.70
2022-08-09T23:46:29.955Z,20.70
2022-08-09T23:48:58.153Z,20.60
2022-08-09T23:51:26.558Z,20.60
2022-08-09T23:54:02.645Z,20.40
2022-08-09T23:56:53.082Z,20.30
2022-08-09T23:59:20.719Z,20.30
